sensor_id;sensor_type;location;lat;lon;timestamp;P1;durP1;ratioP1;P2;durP2;ratioP2
17915;SDS011;9083;49.156;8.982;2023-09-08T00:00:13;4.40;;;4.10;;
17915;SDS011;9083;49.156;8.982;2023-09-08T00:02:39;8.10;;;4.00;;
17915;SDS011;9083;49.156;8.982;2023-09-08T00:05:06;7.00;;;4.30;;
17915;SDS011;9083;49.156;8.982;2023-09-08T00:07:32;6.47;;;4.13;;
17915;SDS011;9083;49.156;8.982;2023-09-08T00:10:00;5.87;;;4.07;;
17915;SDS011;9083;49.156;8.982;2023-09-08T00:12:26;5.80;;;4.10;;
17915;SDS011;9083;49.156;8.982;2023-09-08T00:14:52;8.63;;;4.70;;
17915;SDS011;9083;49.156;8.982;2023-09-08T00:17:19;6.30;;;4.77;;
17915;SDS011;9083;49.156;8.982;2023-09-08T00:19:45;6.33;;;4.23;;
17915;SDS011;9083;49.156;8.982;2023-09-08T00:22:12;5.07;;;4.27;;
17915;SDS011;9083;49.156;8.982;2023-09-08T00:24:38;6.67;;;4.60;;
17915;SDS011;9083;49.156;8.982;2023-09-08T00:27:06;6.77;;;4.40;;
17915;SDS011;9083;49.156;8.982;2023-09-08T00:29:32;7.40;;;4.27;;
17915;SDS011;9083;49.156;8.982;2023-09-08T00:31:58;6.17;;;3.60;;
17915;SDS011;9083;49.156;8.982;2023-09-08T00:34:24;8.13;;;4.23;;
17915;SDS011;9083;49.156;8.982;2023-09-08T00:36:51;4.50;;;3.67;;
17915;SDS011;9083;49.156;8.982;2023-09-08T00:39:17;4.70;;;4.20;;
17915;SDS011;9083;49.156;8.982;2023-09-08T00:41:43;5.80;;;4.57;;
17915;SDS011;9083;49.156;8.982;2023-09-08T00:44:11;8.47;;;4.30;;
17915;SDS011;9083;49.156;8.982;2023-09-08T00:46:37;6.40;;;4.70;;
17915;SDS011;9083;49.156;8.982;2023-09-08T00:49:04;7.17;;;4.63;;
17915;SDS011;9083;49.156;8.982;2023-09-08T00:51:30;5.33;;;4.50;;
17915;SDS011;9083;49.156;8.982;2023-09-08T00:53:57;13.47;;;5.10;;
17915;SDS011;9083;49.156;8.982;2023-09-08T00:56:23;7.67;;;4.47;;
17915;SDS011;9083;49.156;8.982;2023-09-08T00:58:50;5.90;;;4.50;;
17915;SDS011;9083;49.156;8.982;2023-09-08T01:01:17;5.77;;;4.03;;
17915;SDS011;9083;49.156;8.982;2023-09-08T01:03:44;4.33;;;3.77;;
17915;SDS011;9083;49.156;8.982;2023-09-08T01:06:11;5.80;;;4.67;;
17915;SDS011;9083;49.156;8.982;2023-09-08T01:08:37;7.67;;;3.90;;
17915;SDS011;9083;49.156;8.982;2023-09-08T01:11:03;9.70;;;4.53;;
17915;SDS011;9083;49.156;8.982;2023-09-08T01:13:30;4.57;;;4.13;;
17915;SDS011;9083;49.156;8.982;2023-09-08T01:15:56;6.30;;;4.60;;
17915;SDS011;9083;49.156;8.982;2023-09-08T01:18:24;6.10;;;4.43;;
17915;SDS011;9083;49.156;8.982;2023-09-08T01:21:03;7.73;;;4.60;;
17915;SDS011;9083;49.156;8.982;2023-09-08T01:23:35;6.47;;;4.03;;
17915;SDS011;9083;49.156;8.982;2023-09-08T01:26:07;5.73;;;4.40;;
17915;SDS011;9083;49.156;8.982;2023-09-08T01:28:34;5.03;;;4.20;;
17915;SDS011;9083;49.156;8.982;2023-09-08T01:31:00;5.60;;;4.20;;
17915;SDS011;9083;49.156;8.982;2023-09-08T01:33:27;6.53;;;3.97;;
17915;SDS011;9083;49.156;8.982;2023-09-08T01:35:53;5.37;;;4.37;;
17915;SDS011;9083;49.156;8.982;2023-09-08T01:38:20;5.83;;;4.60;;
17915;SDS011;9083;49.156;8.982;2023-09-08T01:40:47;4.93;;;4.43;;
17915;SDS011;9083;49.156;8.982;2023-09-08T01:43:14;7.43;;;4.53;;
17915;SDS011;9083;49.156;8.982;2023-09-08T01:45:41;6.83;;;4.67;;
17915;SDS011;9083;49.156;8.982;2023-09-08T01:48:07;6.77;;;4.87;;
17915;SDS011;9083;49.156;8.982;2023-09-08T01:50:33;6.10;;;3.93;;
17915;SDS011;9083;49.156;8.982;2023-09-08T01:52:59;5.90;;;4.87;;
17915;SDS011;9083;49.156;8.982;2023-09-08T01:55:26;6.77;;;4.03;;
17915;SDS011;9083;49.156;8.982;2023-09-08T01:57:52;5.60;;;4.63;;
17915;SDS011;9083;49.156;8.982;2023-09-08T02:00:20;5.60;;;4.70;;
17915;SDS011;9083;49.156;8.982;2023-09-08T02:02:46;6.67;;;4.40;;
17915;SDS011;9083;49.156;8.982;2023-09-08T02:05:14;4.57;;;4.17;;
17915;SDS011;9083;49.156;8.982;2023-09-08T02:07:40;6.07;;;4.20;;
17915;SDS011;9083;49.156;8.982;2023-09-08T02:10:06;6.30;;;4.43;;
17915;SDS011;9083;49.156;8.982;2023-09-08T02:12:33;6.40;;;4.80;;
17915;SDS011;9083;49.156;8.982;2023-09-08T02:14:59;5.63;;;4.93;;
17915;SDS011;9083;49.156;8.982;2023-09-08T02:17:27;4.93;;;4.43;;
17915;SDS011;9083;49.156;8.982;2023-09-08T02:19:53;6.43;;;4.90;;
17915;SDS011;9083;49.156;8.982;2023-09-08T02:22:19;6.33;;;4.93;;
17915;SDS011;9083;49.156;8.982;2023-09-08T02:24:46;8.00;;;4.77;;
17915;SDS011;9083;49.156;8.982;2023-09-08T02:27:12;7.17;;;4.80;;
17915;SDS011;9083;49.156;8.982;2023-09-08T02:29:38;7.23;;;4.53;;
17915;SDS011;9083;49.156;8.982;2023-09-08T02:32:05;9.77;;;4.50;;
17915;SDS011;9083;49.156;8.982;2023-09-08T02:34:34;5.90;;;4.50;;
17915;SDS011;9083;49.156;8.982;2023-09-08T02:37:02;8.03;;;5.30;;
17915;SDS011;9083;49.156;8.982;2023-09-08T02:39:29;7.63;;;4.80;;
17915;SDS011;9083;49.156;8.982;2023-09-08T02:41:55;7.10;;;5.20;;
17915;SDS011;9083;49.156;8.982;2023-09-08T02:44:21;5.57;;;4.97;;
17915;SDS011;9083;49.156;8.982;2023-09-08T02:46:48;7.27;;;5.20;;
17915;SDS011;9083;49.156;8.982;2023-09-08T02:49:14;6.93;;;4.47;;
17915;SDS011;9083;49.156;8.982;2023-09-08T02:51:42;7.07;;;4.60;;
17915;SDS011;9083;49.156;8.982;2023-09-08T02:54:08;5.57;;;4.80;;
17915;SDS011;9083;49.156;8.982;2023-09-08T02:56:34;7.97;;;4.97;;
17915;SDS011;9083;49.156;8.982;2023-09-08T02:59:00;7.17;;;4.57;;
17915;SDS011;9083;49.156;8.982;2023-09-08T03:01:27;6.13;;;4.10;;
17915;SDS011;9083;49.156;8.982;2023-09-08T03:03:53;7.53;;;5.13;;
17915;SDS011;9083;49.156;8.982;2023-09-08T03:06:19;8.33;;;5.53;;
17915;SDS011;9083;49.156;8.982;2023-09-08T03:08:47;9.17;;;5.03;;
17915;SDS011;9083;49.156;8.982;2023-09-08T03:11:14;6.10;;;4.80;;
17915;SDS011;9083;49.156;8.982;2023-09-08T03:13:40;7.67;;;4.93;;
17915;SDS011;9083;49.156;8.982;2023-09-08T03:16:07;9.07;;;5.20;;
17915;SDS011;9083;49.156;8.982;2023-09-08T03:18:33;6.33;;;4.90;;
17915;SDS011;9083;49.156;8.982;2023-09-08T03:21:01;6.60;;;5.27;;
17915;SDS011;9083;49.156;8.982;2023-09-08T03:23:33;6.77;;;4.67;;
17915;SDS011;9083;49.156;8.982;2023-09-08T03:26:01;7.03;;;5.20;;
17915;SDS011;9083;49.156;8.982;2023-09-08T03:28:27;7.73;;;4.30;;
17915;SDS011;9083;49.156;8.982;2023-09-08T03:30:54;8.00;;;5.47;;
17915;SDS011;9083;49.156;8.982;2023-09-08T03:33:20;6.93;;;4.93;;
17915;SDS011;9083;49.156;8.982;2023-09-08T03:35:46;7.33;;;5.57;;
17915;SDS011;9083;49.156;8.982;2023-09-08T03:38:12;6.63;;;5.17;;
17915;SDS011;9083;49.156;8.982;2023-09-08T03:40:39;6.63;;;4.77;;
17915;SDS011;9083;49.156;8.982;2023-09-08T03:43:06;10.53;;;5.30;;
17915;SDS011;9083;49.156;8.982;2023-09-08T03:45:33;9.27;;;5.47;;
17915;SDS011;9083;49.156;8.982;2023-09-08T03:47:59;6.07;;;5.13;;
17915;SDS011;9083;49.156;8.982;2023-09-08T03:50:25;6.20;;;4.93;;
17915;SDS011;9083;49.156;8.982;2023-09-08T03:52:52;7.23;;;5.53;;
17915;SDS011;9083;49.156;8.982;2023-09-08T03:55:18;5.53;;;4.70;;
17915;SDS011;9083;49.156;8.982;2023-09-08T03:57:45;6.57;;;5.10;;
17915;SDS011;9083;49.156;8.982;2023-09-08T04:00:13;6.60;;;4.97;;
17915;SDS011;9083;49.156;8.982;2023-09-08T04:02:44;8.80;;;5.87;;
17915;SDS011;9083;49.156;8.982;2023-09-08T04:05:10;6.80;;;4.90;;
17915;SDS011;9083;49.156;8.982;2023-09-08T04:07:37;7.03;;;5.43;;
17915;SDS011;9083;49.156;8.982;2023-09-08T04:10:03;11.70;;;5.20;;
17915;SDS011;9083;49.156;8.982;2023-09-08T04:12:30;5.80;;;4.90;;
17915;SDS011;9083;49.156;8.982;2023-09-08T04:14:56;6.10;;;5.00;;
17915;SDS011;9083;49.156;8.982;2023-09-08T04:17:23;7.37;;;5.73;;
17915;SDS011;9083;49.156;8.982;2023-09-08T04:19:50;7.37;;;5.20;;
17915;SDS011;9083;49.156;8.982;2023-09-08T04:22:16;8.93;;;5.23;;
17915;SDS011;9083;49.156;8.982;2023-09-08T04:24:42;6.67;;;5.03;;
17915;SDS011;9083;49.156;8.982;2023-09-08T04:27:09;11.27;;;5.27;;
17915;SDS011;9083;49.156;8.982;2023-09-08T04:29:35;6.33;;;5.47;;
17915;SDS011;9083;49.156;8.982;2023-09-08T04:32:01;6.93;;;5.37;;
17915;SDS011;9083;49.156;8.982;2023-09-08T04:34:35;10.53;;;5.77;;
17915;SDS011;9083;49.156;8.982;2023-09-08T04:37:01;6.93;;;5.40;;
17915;SDS011;9083;49.156;8.982;2023-09-08T04:39:27;9.70;;;5.77;;
17915;SDS011;9083;49.156;8.982;2023-09-08T04:41:53;5.93;;;4.67;;
17915;SDS011;9083;49.156;8.982;2023-09-08T04:44:20;9.57;;;5.33;;
17915;SDS011;9083;49.156;8.982;2023-09-08T04:46:46;9.00;;;5.43;;
17915;SDS011;9083;49.156;8.982;2023-09-08T04:49:12;6.77;;;5.07;;
17915;SDS011;9083;49.156;8.982;2023-09-08T04:51:40;10.23;;;5.67;;
17915;SDS011;9083;49.156;8.982;2023-09-08T04:54:06;10.10;;;5.63;;
17915;SDS011;9083;49.156;8.982;2023-09-08T04:56:32;7.80;;;5.93;;
17915;SDS011;9083;49.156;8.982;2023-09-08T04:58:59;10.20;;;6.40;;
17915;SDS011;9083;49.156;8.982;2023-09-08T05:01:26;7.57;;;5.10;;
17915;SDS011;9083;49.156;8.982;2023-09-08T05:03:52;8.20;;;5.90;;
17915;SDS011;9083;49.156;8.982;2023-09-08T05:06:18;8.17;;;5.53;;
17915;SDS011;9083;49.156;8.982;2023-09-08T05:08:46;9.97;;;6.03;;
17915;SDS011;9083;49.156;8.982;2023-09-08T05:11:12;9.50;;;5.70;;
17915;SDS011;9083;49.156;8.982;2023-09-08T05:13:38;6.87;;;5.40;;
17915;SDS011;9083;49.156;8.982;2023-09-08T05:16:05;9.37;;;6.00;;
17915;SDS011;9083;49.156;8.982;2023-09-08T05:18:37;7.20;;;5.33;;
17915;SDS011;9083;49.156;8.982;2023-09-08T05:21:03;10.17;;;6.00;;
17915;SDS011;9083;49.156;8.982;2023-09-08T05:23:30;6.70;;;5.20;;
17915;SDS011;9083;49.156;8.982;2023-09-08T05:25:58;6.10;;;5.20;;
17915;SDS011;9083;49.156;8.982;2023-09-08T05:28:24;7.37;;;5.33;;
17915;SDS011;9083;49.156;8.982;2023-09-08T05:30:50;9.13;;;5.67;;
17915;SDS011;9083;49.156;8.982;2023-09-08T05:33:17;6.90;;;5.37;;
17915;SDS011;9083;49.156;8.982;2023-09-08T05:35:44;7.60;;;5.57;;
17915;SDS011;9083;49.156;8.982;2023-09-08T05:38:10;8.73;;;6.60;;
17915;SDS011;9083;49.156;8.982;2023-09-08T05:40:36;7.27;;;5.53;;
17915;SDS011;9083;49.156;8.982;2023-09-08T05:43:04;6.83;;;5.50;;
17915;SDS011;9083;49.156;8.982;2023-09-08T05:45:31;6.77;;;5.83;;
17915;SDS011;9083;49.156;8.982;2023-09-08T05:47:57;9.10;;;5.50;;
17915;SDS011;9083;49.156;8.982;2023-09-08T05:50:23;11.77;;;6.00;;
17915;SDS011;9083;49.156;8.982;2023-09-08T05:52:50;7.80;;;5.47;;
17915;SDS011;9083;49.156;8.982;2023-09-08T05:55:17;7.93;;;5.47;;
17915;SDS011;9083;49.156;8.982;2023-09-08T05:57:43;8.57;;;5.57;;
17915;SDS011;9083;49.156;8.982;2023-09-08T06:00:11;10.00;;;6.00;;
17915;SDS011;9083;49.156;8.982;2023-09-08T06:02:38;8.30;;;5.80;;
17915;SDS011;9083;49.156;8.982;2023-09-08T06:05:04;7.57;;;5.73;;
17915;SDS011;9083;49.156;8.982;2023-09-08T06:07:31;8.47;;;6.40;;
17915;SDS011;9083;49.156;8.982;2023-09-08T06:09:57;9.43;;;5.90;;
17915;SDS011;9083;49.156;8.982;2023-09-08T06:12:23;11.87;;;6.37;;
17915;SDS011;9083;49.156;8.982;2023-09-08T06:14:49;7.17;;;5.70;;
17915;SDS011;9083;49.156;8.982;2023-09-08T06:17:17;15.30;;;6.07;;
17915;SDS011;9083;49.156;8.982;2023-09-08T06:19:43;7.53;;;5.67;;
17915;SDS011;9083;49.156;8.982;2023-09-08T06:22:10;10.53;;;6.40;;
17915;SDS011;9083;49.156;8.982;2023-09-08T06:24:36;10.03;;;6.33;;
17915;SDS011;9083;49.156;8.982;2023-09-08T06:27:02;10.17;;;6.20;;
17915;SDS011;9083;49.156;8.982;2023-09-08T06:29:28;8.07;;;6.23;;
17915;SDS011;9083;49.156;8.982;2023-09-08T06:31:55;8.20;;;6.17;;
17915;SDS011;9083;49.156;8.982;2023-09-08T06:34:22;9.43;;;6.43;;
17915;SDS011;9083;49.156;8.982;2023-09-08T06:36:49;8.57;;;5.70;;
17915;SDS011;9083;49.156;8.982;2023-09-08T06:39:15;11.93;;;6.57;;
17915;SDS011;9083;49.156;8.982;2023-09-08T06:41:41;9.43;;;6.37;;
17915;SDS011;9083;49.156;8.982;2023-09-08T06:44:09;10.93;;;6.03;;
17915;SDS011;9083;49.156;8.982;2023-09-08T06:46:35;9.67;;;6.47;;
17915;SDS011;9083;49.156;8.982;2023-09-08T06:49:01;12.67;;;5.93;;
17915;SDS011;9083;49.156;8.982;2023-09-08T06:51:29;7.47;;;5.37;;
17915;SDS011;9083;49.156;8.982;2023-09-08T06:53:55;8.17;;;6.00;;
17915;SDS011;9083;49.156;8.982;2023-09-08T06:56:22;6.83;;;5.37;;
17915;SDS011;9083;49.156;8.982;2023-09-08T06:58:48;7.07;;;5.43;;
17915;SDS011;9083;49.156;8.982;2023-09-08T07:01:14;13.17;;;6.83;;
17915;SDS011;9083;49.156;8.982;2023-09-08T07:03:41;16.83;;;7.53;;
17915;SDS011;9083;49.156;8.982;2023-09-08T07:06:07;9.90;;;5.83;;
17915;SDS011;9083;49.156;8.982;2023-09-08T07:08:35;10.30;;;5.53;;
17915;SDS011;9083;49.156;8.982;2023-09-08T07:11:01;21.23;;;6.80;;
17915;SDS011;9083;49.156;8.982;2023-09-08T07:13:27;9.40;;;6.30;;
17915;SDS011;9083;49.156;8.982;2023-09-08T07:15:54;7.93;;;6.17;;
17915;SDS011;9083;49.156;8.982;2023-09-08T07:18:20;9.83;;;6.30;;
17915;SDS011;9083;49.156;8.982;2023-09-08T07:20:46;11.50;;;6.70;;
17915;SDS011;9083;49.156;8.982;2023-09-08T07:23:14;10.87;;;5.27;;
17915;SDS011;9083;49.156;8.982;2023-09-08T07:25:44;14.63;;;6.87;;
17915;SDS011;9083;49.156;8.982;2023-09-08T07:28:10;6.90;;;5.83;;
17915;SDS011;9083;49.156;8.982;2023-09-08T07:30:37;8.50;;;6.13;;
17915;SDS011;9083;49.156;8.982;2023-09-08T07:33:03;9.50;;;6.10;;
17915;SDS011;9083;49.156;8.982;2023-09-08T07:35:30;14.30;;;6.47;;
17915;SDS011;9083;49.156;8.982;2023-09-08T07:37:57;13.20;;;6.10;;
17915;SDS011;9083;49.156;8.982;2023-09-08T07:40:23;7.00;;;5.50;;
17915;SDS011;9083;49.156;8.982;2023-09-08T07:42:51;9.63;;;6.00;;
17915;SDS011;9083;49.156;8.982;2023-09-08T07:45:17;5.90;;;5.17;;
17915;SDS011;9083;49.156;8.982;2023-09-08T07:47:43;9.73;;;5.70;;
17915;SDS011;9083;49.156;8.982;2023-09-08T07:50:16;10.53;;;5.03;;
17915;SDS011;9083;49.156;8.982;2023-09-08T07:52:43;9.03;;;5.80;;
17915;SDS011;9083;49.156;8.982;2023-09-08T07:55:09;8.13;;;5.10;;
17915;SDS011;9083;49.156;8.982;2023-09-08T07:57:35;6.73;;;5.43;;
17915;SDS011;9083;49.156;8.982;2023-09-08T08:00:04;5.47;;;4.90;;
17915;SDS011;9083;49.156;8.982;2023-09-08T08:02:30;6.13;;;5.53;;
17915;SDS011;9083;49.156;8.982;2023-09-08T08:04:56;7.13;;;5.20;;
17915;SDS011;9083;49.156;8.982;2023-09-08T08:07:23;9.13;;;5.40;;
17915;SDS011;9083;49.156;8.982;2023-09-08T08:09:49;5.27;;;4.77;;
17915;SDS011;9083;49.156;8.982;2023-09-08T08:12:15;14.40;;;6.20;;
17915;SDS011;9083;49.156;8.982;2023-09-08T08:14:41;9.50;;;5.33;;
17915;SDS011;9083;49.156;8.982;2023-09-08T08:17:09;8.00;;;5.30;;
17915;SDS011;9083;49.156;8.982;2023-09-08T08:19:36;8.00;;;5.03;;
17915;SDS011;9083;49.156;8.982;2023-09-08T08:22:02;5.53;;;5.03;;
17915;SDS011;9083;49.156;8.982;2023-09-08T08:24:29;12.83;;;5.67;;
17915;SDS011;9083;49.156;8.982;2023-09-08T08:26:55;8.43;;;4.97;;
17915;SDS011;9083;49.156;8.982;2023-09-08T08:29:21;8.10;;;4.90;;
17915;SDS011;9083;49.156;8.982;2023-09-08T08:31:48;8.73;;;5.33;;
17915;SDS011;9083;49.156;8.982;2023-09-08T08:34:15;7.73;;;5.30;;
17915;SDS011;9083;49.156;8.982;2023-09-08T08:36:42;7.67;;;5.07;;
17915;SDS011;9083;49.156;8.982;2023-09-08T08:39:08;6.57;;;5.50;;
17915;SDS011;9083;49.156;8.982;2023-09-08T08:41:34;8.67;;;4.70;;
17915;SDS011;9083;49.156;8.982;2023-09-08T08:44:04;8.27;;;5.27;;
17915;SDS011;9083;49.156;8.982;2023-09-08T08:46:31;10.00;;;5.43;;
17915;SDS011;9083;49.156;8.982;2023-09-08T08:48:59;9.37;;;5.13;;
17915;SDS011;9083;49.156;8.982;2023-09-08T08:51:27;9.70;;;5.37;;
17915;SDS011;9083;49.156;8.982;2023-09-08T08:53:54;5.27;;;4.63;;
17915;SDS011;9083;49.156;8.982;2023-09-08T08:56:20;4.50;;;4.10;;
17915;SDS011;9083;49.156;8.982;2023-09-08T08:58:46;9.23;;;5.07;;
17915;SDS011;9083;49.156;8.982;2023-09-08T09:01:13;8.00;;;5.33;;
17915;SDS011;9083;49.156;8.982;2023-09-08T09:03:42;5.70;;;4.90;;
17915;SDS011;9083;49.156;8.982;2023-09-08T09:06:09;6.22;;;4.95;;
17915;SDS011;9083;49.156;8.982;2023-09-08T09:08:37;5.18;;;4.70;;
17915;SDS011;9083;49.156;8.982;2023-09-08T09:11:04;6.93;;;5.00;;
17915;SDS011;9083;49.156;8.982;2023-09-08T09:13:31;11.75;;;5.53;;
17915;SDS011;9083;49.156;8.982;2023-09-08T09:15:58;9.27;;;4.72;;
17915;SDS011;9083;49.156;8.982;2023-09-08T09:18:24;8.68;;;4.97;;
17915;SDS011;9083;49.156;8.982;2023-09-08T09:20:55;5.43;;;4.45;;
17915;SDS011;9083;49.156;8.982;2023-09-08T09:23:28;10.13;;;5.43;;
17915;SDS011;9083;49.156;8.982;2023-09-08T09:25:56;9.45;;;5.00;;
17915;SDS011;9083;49.156;8.982;2023-09-08T09:28:22;10.10;;;5.28;;
17915;SDS011;9083;49.156;8.982;2023-09-08T09:30:49;10.27;;;5.15;;
17915;SDS011;9083;49.156;8.982;2023-09-08T09:33:16;8.63;;;5.43;;
17915;SDS011;9083;49.156;8.982;2023-09-08T09:35:43;8.00;;;4.93;;
17915;SDS011;9083;49.156;8.982;2023-09-08T09:38:09;7.20;;;4.97;;
17915;SDS011;9083;49.156;8.982;2023-09-08T09:43:03;7.60;;;5.28;;
17915;SDS011;9083;49.156;8.982;2023-09-08T09:45:30;7.65;;;5.07;;
17915;SDS011;9083;49.156;8.982;2023-09-08T09:47:56;7.30;;;5.13;;
17915;SDS011;9083;49.156;8.982;2023-09-08T09:50:27;7.15;;;4.47;;
17915;SDS011;9083;49.156;8.982;2023-09-08T09:52:54;5.43;;;4.93;;
17915;SDS011;9083;49.156;8.982;2023-09-08T09:55:21;14.10;;;4.80;;
17915;SDS011;9083;49.156;8.982;2023-09-08T09:57:47;7.03;;;4.85;;
17915;SDS011;9083;49.156;8.982;2023-09-08T10:00:15;6.15;;;4.40;;
17915;SDS011;9083;49.156;8.982;2023-09-08T10:02:42;8.75;;;4.72;;
17915;SDS011;9083;49.156;8.982;2023-09-08T10:05:10;10.93;;;5.15;;
17915;SDS011;9083;49.156;8.982;2023-09-08T10:07:36;6.22;;;4.70;;
17915;SDS011;9083;49.156;8.982;2023-09-08T10:10:02;6.47;;;4.22;;
17915;SDS011;9083;49.156;8.982;2023-09-08T10:12:30;6.78;;;4.93;;
17915;SDS011;9083;49.156;8.982;2023-09-08T10:14:58;5.35;;;4.72;;
17915;SDS011;9083;49.156;8.982;2023-09-08T10:17:26;8.88;;;5.03;;
17915;SDS011;9083;49.156;8.982;2023-09-08T10:19:56;5.25;;;4.85;;
17915;SDS011;9083;49.156;8.982;2023-09-08T10:22:23;4.80;;;4.40;;
17915;SDS011;9083;49.156;8.982;2023-09-08T10:24:53;4.93;;;4.15;;
17915;SDS011;9083;49.156;8.982;2023-09-08T10:27:20;4.80;;;3.72;;
17915;SDS011;9083;49.156;8.982;2023-09-08T10:29:48;6.07;;;4.80;;
17915;SDS011;9083;49.156;8.982;2023-09-08T10:32:15;8.55;;;4.20;;
17915;SDS011;9083;49.156;8.982;2023-09-08T10:34:44;7.75;;;4.00;;
17915;SDS011;9083;49.156;8.982;2023-09-08T10:37:18;6.00;;;4.78;;
17915;SDS011;9083;49.156;8.982;2023-09-08T10:39:44;5.72;;;4.82;;
17915;SDS011;9083;49.156;8.982;2023-09-08T10:42:20;10.23;;;5.30;;
17915;SDS011;9083;49.156;8.982;2023-09-08T10:44:55;4.68;;;4.28;;
17915;SDS011;9083;49.156;8.982;2023-09-08T10:47:22;6.40;;;4.30;;
17915;SDS011;9083;49.156;8.982;2023-09-08T10:49:50;4.63;;;4.15;;
17915;SDS011;9083;49.156;8.982;2023-09-08T10:52:20;4.30;;;4.00;;
17915;SDS011;9083;49.156;8.982;2023-09-08T10:54:48;7.55;;;4.55;;
17915;SDS011;9083;49.156;8.982;2023-09-08T10:57:15;4.80;;;4.40;;
17915;SDS011;9083;49.156;8.982;2023-09-08T10:59:44;6.25;;;4.47;;
17915;SDS011;9083;49.156;8.982;2023-09-08T11:02:20;4.63;;;4.22;;
17915;SDS011;9083;49.156;8.982;2023-09-08T11:04:58;6.80;;;4.20;;
17915;SDS011;9083;49.156;8.982;2023-09-08T11:07:25;7.22;;;4.50;;
17915;SDS011;9083;49.156;8.982;2023-09-08T11:09:51;7.38;;;4.63;;
17915;SDS011;9083;49.156;8.982;2023-09-08T11:12:17;3.88;;;3.58;;
17915;SDS011;9083;49.156;8.982;2023-09-08T11:14:44;5.03;;;4.45;;
17915;SDS011;9083;49.156;8.982;2023-09-08T11:17:10;4.95;;;3.80;;
17915;SDS011;9083;49.156;8.982;2023-09-08T11:19:43;6.50;;;3.95;;
17915;SDS011;9083;49.156;8.982;2023-09-08T11:22:10;4.60;;;4.10;;
17915;SDS011;9083;49.156;8.982;2023-09-08T11:24:38;8.25;;;4.40;;
17915;SDS011;9083;49.156;8.982;2023-09-08T11:27:04;5.53;;;4.25;;
17915;SDS011;9083;49.156;8.982;2023-09-08T11:29:31;4.68;;;4.13;;
17915;SDS011;9083;49.156;8.982;2023-09-08T11:31:57;5.65;;;4.10;;
17915;SDS011;9083;49.156;8.982;2023-09-08T11:34:24;6.38;;;4.53;;
17915;SDS011;9083;49.156;8.982;2023-09-08T11:36:50;7.03;;;4.60;;
17915;SDS011;9083;49.156;8.982;2023-09-08T11:39:22;5.53;;;3.60;;
17915;SDS011;9083;49.156;8.982;2023-09-08T11:41:48;5.45;;;4.38;;
17915;SDS011;9083;49.156;8.982;2023-09-08T11:44:15;4.82;;;4.00;;
17915;SDS011;9083;49.156;8.982;2023-09-08T11:46:41;5.72;;;4.07;;
17915;SDS011;9083;49.156;8.982;2023-09-08T11:49:08;7.00;;;4.82;;
17915;SDS011;9083;49.156;8.982;2023-09-08T11:51:34;4.75;;;4.35;;
17915;SDS011;9083;49.156;8.982;2023-09-08T11:54:03;9.18;;;5.25;;
17915;SDS011;9083;49.156;8.982;2023-09-08T11:56:30;6.63;;;4.47;;
17915;SDS011;9083;49.156;8.982;2023-09-08T11:58:57;7.53;;;4.75;;
17915;SDS011;9083;49.156;8.982;2023-09-08T12:01:23;4.47;;;3.63;;
17915;SDS011;9083;49.156;8.982;2023-09-08T12:03:51;6.03;;;4.00;;
17915;SDS011;9083;49.156;8.982;2023-09-08T12:06:17;5.70;;;4.25;;
17915;SDS011;9083;49.156;8.982;2023-09-08T12:08:43;5.30;;;4.13;;
17915;SDS011;9083;49.156;8.982;2023-09-08T12:11:10;5.13;;;4.32;;
17915;SDS011;9083;49.156;8.982;2023-09-08T12:13:38;5.40;;;4.90;;
17915;SDS011;9083;49.156;8.982;2023-09-08T12:16:16;6.85;;;4.32;;
17915;SDS011;9083;49.156;8.982;2023-09-08T12:18:43;3.88;;;3.58;;
17915;SDS011;9083;49.156;8.982;2023-09-08T12:21:10;4.65;;;3.90;;
17915;SDS011;9083;49.156;8.982;2023-09-08T12:23:46;4.53;;;3.95;;
17915;SDS011;9083;49.156;8.982;2023-09-08T12:26:13;5.88;;;3.97;;
17915;SDS011;9083;49.156;8.982;2023-09-08T12:28:42;5.82;;;4.53;;
17915;SDS011;9083;49.156;8.982;2023-09-08T12:31:09;4.13;;;3.83;;
17915;SDS011;9083;49.156;8.982;2023-09-08T12:33:36;4.38;;;4.00;;
17915;SDS011;9083;49.156;8.982;2023-09-08T12:36:09;6.18;;;4.10;;
17915;SDS011;9083;49.156;8.982;2023-09-08T12:38:36;4.65;;;3.90;;
17915;SDS011;9083;49.156;8.982;2023-09-08T12:41:02;4.60;;;4.20;;
17915;SDS011;9083;49.156;8.982;2023-09-08T12:43:29;4.47;;;4.18;;
17915;SDS011;9083;49.156;8.982;2023-09-08T12:45:56;6.68;;;4.10;;
17915;SDS011;9083;49.156;8.982;2023-09-08T12:48:23;5.97;;;4.53;;
17915;SDS011;9083;49.156;8.982;2023-09-08T12:50:49;7.55;;;4.47;;
17915;SDS011;9083;49.156;8.982;2023-09-08T12:53:15;4.78;;;4.38;;
17915;SDS011;9083;49.156;8.982;2023-09-08T12:55:42;5.13;;;3.88;;
17915;SDS011;9083;49.156;8.982;2023-09-08T12:58:08;7.55;;;4.53;;
17915;SDS011;9083;49.156;8.982;2023-09-08T13:00:34;4.40;;;4.00;;
17915;SDS011;9083;49.156;8.982;2023-09-08T13:03:02;10.18;;;4.60;;
17915;SDS011;9083;49.156;8.982;2023-09-08T13:05:28;4.50;;;3.97;;
17915;SDS011;9083;49.156;8.982;2023-09-08T13:07:55;5.20;;;4.55;;
17915;SDS011;9083;49.156;8.982;2023-09-08T13:10:22;5.88;;;4.68;;
17915;SDS011;9083;49.156;8.982;2023-09-08T13:12:48;3.97;;;3.53;;
17915;SDS011;9083;49.156;8.982;2023-09-08T13:15:15;5.57;;;3.88;;
17915;SDS011;9083;49.156;8.982;2023-09-08T13:17:41;6.25;;;4.40;;
17915;SDS011;9083;49.156;8.982;2023-09-08T13:20:09;4.75;;;4.43;;
17915;SDS011;9083;49.156;8.982;2023-09-08T13:22:36;6.80;;;4.40;;
17915;SDS011;9083;49.156;8.982;2023-09-08T13:25:02;5.28;;;4.50;;
17915;SDS011;9083;49.156;8.982;2023-09-08T13:27:28;4.45;;;4.05;;
17915;SDS011;9083;49.156;8.982;2023-09-08T13:30:06;4.28;;;3.97;;
17915;SDS011;9083;49.156;8.982;2023-09-08T13:32:33;6.72;;;4.85;;
17915;SDS011;9083;49.156;8.982;2023-09-08T13:34:59;6.32;;;4.70;;
17915;SDS011;9083;49.156;8.982;2023-09-08T13:37:27;10.90;;;5.30;;
17915;SDS011;9083;49.156;8.982;2023-09-08T13:39:54;7.13;;;4.53;;
17915;SDS011;9083;49.156;8.982;2023-09-08T13:42:20;7.13;;;4.32;;
17915;SDS011;9083;49.156;8.982;2023-09-08T13:44:46;4.50;;;4.00;;
17915;SDS011;9083;49.156;8.982;2023-09-08T13:47:13;21.58;;;5.68;;
17915;SDS011;9083;49.156;8.982;2023-09-08T13:49:39;9.90;;;4.70;;
17915;SDS011;9083;49.156;8.982;2023-09-08T13:52:05;6.97;;;4.47;;
17915;SDS011;9083;49.156;8.982;2023-09-08T13:54:33;10.98;;;4.72;;
17915;SDS011;9083;49.156;8.982;2023-09-08T13:57:00;9.70;;;4.95;;
17915;SDS011;9083;49.156;8.982;2023-09-08T13:59:27;4.88;;;4.38;;
17915;SDS011;9083;49.156;8.982;2023-09-08T14:01:54;5.40;;;4.65;;
17915;SDS011;9083;49.156;8.982;2023-09-08T14:04:21;5.53;;;4.18;;
17915;SDS011;9083;49.156;8.982;2023-09-08T14:06:47;4.95;;;4.55;;
17915;SDS011;9083;49.156;8.982;2023-09-08T14:09:13;10.75;;;5.03;;
17915;SDS011;9083;49.156;8.982;2023-09-08T14:11:41;4.80;;;4.40;;
17915;SDS011;9083;49.156;8.982;2023-09-08T14:14:07;4.57;;;4.18;;
17915;SDS011;9083;49.156;8.982;2023-09-08T14:16:33;4.22;;;3.92;;
17915;SDS011;9083;49.156;8.982;2023-09-08T14:19:00;9.57;;;4.97;;
17915;SDS011;9083;49.156;8.982;2023-09-08T14:21:26;7.70;;;4.68;;
17915;SDS011;9083;49.156;8.982;2023-09-08T14:23:53;8.40;;;5.00;;
17915;SDS011;9083;49.156;8.982;2023-09-08T14:26:19;5.75;;;4.53;;
17915;SDS011;9083;49.156;8.982;2023-09-08T14:28:47;6.10;;;4.38;;
17915;SDS011;9083;49.156;8.982;2023-09-08T14:31:13;7.82;;;4.63;;
17915;SDS011;9083;49.156;8.982;2023-09-08T14:33:39;15.13;;;6.10;;
17915;SDS011;9083;49.156;8.982;2023-09-08T14:36:05;7.40;;;5.13;;
17915;SDS011;9083;49.156;8.982;2023-09-08T14:38:33;9.32;;;4.75;;
17915;SDS011;9083;49.156;8.982;2023-09-08T14:41:00;7.93;;;4.30;;
17915;SDS011;9083;49.156;8.982;2023-09-08T14:43:27;7.50;;;4.75;;
17915;SDS011;9083;49.156;8.982;2023-09-08T14:45:54;5.05;;;4.40;;
17915;SDS011;9083;49.156;8.982;2023-09-08T14:48:22;4.70;;;4.30;;
17915;SDS011;9083;49.156;8.982;2023-09-08T14:50:48;5.30;;;4.20;;
17915;SDS011;9083;49.156;8.982;2023-09-08T14:53:15;6.05;;;4.93;;
17915;SDS011;9083;49.156;8.982;2023-09-08T14:55:41;4.95;;;4.32;;
17915;SDS011;9083;49.156;8.982;2023-09-08T14:58:09;4.82;;;4.43;;
17915;SDS011;9083;49.156;8.982;2023-09-08T15:00:35;5.68;;;4.55;;